createdAt,value
2018-03-16T00:01:05.084Z,25.60
2018-03-16T00:03:32.911Z,26.10
2018-03-16T00:06:00.788Z,29.53
2018-03-16T00:08:28.514Z,27.47
2018-03-16T00:10:56.201Z,28.43
2018-03-16T00:13:24.019Z,25.00
2018-03-16T00:15:51.596Z,28.67
2018-03-16T00:18:19.232Z,26.97
2018-03-16T00:20:46.821Z,26.50
2018-03-16T00:23:14.506Z,21.40
2018-03-16T00:25:42.463Z,23.10
2018-03-16T00:28:10.141Z,25.13
2018-03-16T00:30:37.955Z,20.77
2018-03-16T00:33:05.628Z,25.67
2018-03-16T00:35:33.406Z,32.40
2018-03-16T00:38:01.058Z,26.50
2018-03-16T00:40:28.863Z,25.40
2018-03-16T00:42:56.642Z,27.07
2018-03-16T00:45:24.297Z,28.73
2018-03-16T00:47:51.941Z,30.87
2018-03-16T00:50:19.716Z,29.50
2018-03-16T00:52:47.337Z,34.20
2018-03-16T00:55:15.014Z,29.13
2018-03-16T00:57:42.792Z,32.23
2018-03-16T01:00:10.568Z,30.47
2018-03-16T01:02:38.239Z,30.70
2018-03-16T01:05:05.961Z,28.80
2018-03-16T01:07:33.652Z,33.03
2018-03-16T01:10:01.263Z,30.43
2018-03-16T01:12:28.945Z,28.20
2018-03-16T01:14:56.609Z,31.10
2018-03-16T01:17:24.402Z,35.10
2018-03-16T01:19:52.182Z,29.80
2018-03-16T01:22:19.840Z,31.07
2018-03-16T01:24:47.485Z,33.83
2018-03-16T01:27:15.072Z,35.00
2018-03-16T01:29:42.767Z,28.17
2018-03-16T01:32:10.411Z,35.47
2018-03-16T01:34:38.141Z,32.57
2018-03-16T01:37:05.908Z,27.87
2018-03-16T01:39:33.742Z,26.63
2018-03-16T01:42:01.566Z,30.50
2018-03-16T01:44:29.229Z,31.20
2018-03-16T01:46:56.873Z,20.37
2018-03-16T01:49:24.483Z,33.30
2018-03-16T01:51:52.154Z,29.20
2018-03-16T01:54:19.768Z,23.90
2018-03-16T01:56:47.519Z,40.30
2018-03-16T01:59:15.179Z,40.73
2018-03-16T02:01:42.968Z,30.57
2018-03-16T02:04:10.753Z,38.80
2018-03-16T02:06:38.513Z,38.80
2018-03-16T02:09:06.204Z,26.10
2018-03-16T02:11:33.865Z,39.47
2018-03-16T02:14:01.559Z,36.03
2018-03-16T02:16:29.149Z,33.20
2018-03-16T02:18:56.903Z,38.80
2018-03-16T02:21:24.686Z,33.80
2018-03-16T02:23:52.283Z,41.20
2018-03-16T02:26:20.136Z,41.97
2018-03-16T02:28:47.814Z,38.90
2018-03-16T02:31:15.399Z,37.80
2018-03-16T02:33:43.026Z,39.67
2018-03-16T02:36:10.720Z,42.27
2018-03-16T02:38:38.496Z,41.63
2018-03-16T02:41:06.155Z,38.63
2018-03-16T02:43:33.856Z,41.07
2018-03-16T02:46:01.614Z,34.33
2018-03-16T02:48:29.318Z,41.97
2018-03-16T02:50:56.989Z,41.10
2018-03-16T02:53:24.978Z,29.43
2018-03-16T02:55:52.571Z,44.23
2018-03-16T02:58:20.217Z,43.70
2018-03-16T03:00:47.900Z,36.13
2018-03-16T03:03:15.528Z,40.47
2018-03-16T03:05:43.344Z,38.70
2018-03-16T03:08:11.127Z,37.90
2018-03-16T03:10:38.913Z,35.10
2018-03-16T03:13:06.583Z,32.73
2018-03-16T03:15:34.307Z,39.47
2018-03-16T03:18:02.000Z,31.30
2018-03-16T03:20:29.608Z,31.80
2018-03-16T03:22:57.389Z,38.90
2018-03-16T03:25:25.153Z,38.53
2018-03-16T03:27:52.786Z,37.67
2018-03-16T03:30:20.379Z,38.70
2018-03-16T03:32:48.194Z,36.43
2018-03-16T03:35:15.878Z,38.27
2018-03-16T03:37:43.541Z,37.90
2018-03-16T03:40:11.215Z,39.40
2018-03-16T03:42:38.840Z,39.23
2018-03-16T03:45:06.573Z,42.57
2018-03-16T03:47:34.323Z,36.47
2018-03-16T03:50:02.023Z,37.40
2018-03-16T03:52:29.686Z,30.97
2018-03-16T03:54:57.373Z,37.30
2018-03-16T03:57:24.998Z,29.83
2018-03-16T03:59:52.609Z,37.20
2018-03-16T04:02:20.206Z,37.63
2018-03-16T04:04:47.870Z,32.17
2018-03-16T04:07:15.481Z,40.03
2018-03-16T04:09:43.201Z,35.90
2018-03-16T04:12:10.966Z,33.47
2018-03-16T04:14:38.878Z,37.27
2018-03-16T04:17:06.657Z,35.43
2018-03-16T04:19:34.296Z,30.37
2018-03-16T04:22:01.996Z,39.60
2018-03-16T04:24:29.588Z,43.83
2018-03-16T04:26:57.250Z,40.97
2018-03-16T04:29:24.839Z,33.17
2018-03-16T04:31:52.613Z,43.40
2018-03-16T04:34:20.386Z,36.73
2018-03-16T04:36:48.055Z,31.30
2018-03-16T04:39:15.830Z,42.83
2018-03-16T04:41:43.515Z,23.87
2018-03-16T04:44:11.271Z,33.17
2018-03-16T04:46:39.040Z,44.33
2018-03-16T04:49:06.631Z,45.20
2018-03-16T04:51:34.208Z,28.13
2018-03-16T04:54:01.893Z,41.93
2018-03-16T04:56:29.669Z,33.07
2018-03-16T04:58:57.261Z,40.63
2018-03-16T05:01:25.018Z,45.07
2018-03-16T05:03:52.756Z,42.90
2018-03-16T05:06:20.474Z,43.03
2018-03-16T05:08:48.353Z,33.33
2018-03-16T05:11:16.582Z,39.50
2018-03-16T05:13:44.228Z,44.10
2018-03-16T05:16:11.876Z,36.47
2018-03-16T05:18:39.560Z,38.70
2018-03-16T05:21:07.156Z,43.50
2018-03-16T05:23:34.859Z,44.90
2018-03-16T05:26:02.517Z,47.93
2018-03-16T05:28:30.270Z,30.40
2018-03-16T05:30:58.052Z,44.33
2018-03-16T05:33:26.101Z,36.73
2018-03-16T05:35:53.913Z,36.97
2018-03-16T05:38:21.694Z,40.20
2018-03-16T05:40:49.452Z,42.27
2018-03-16T05:43:17.059Z,46.17
2018-03-16T05:45:44.816Z,50.20
2018-03-16T05:48:12.549Z,45.30
2018-03-16T05:50:40.367Z,37.97
2018-03-16T05:53:08.355Z,46.30
2018-03-16T05:55:36.041Z,45.20
2018-03-16T05:58:03.803Z,32.53
2018-03-16T06:00:31.440Z,48.00
2018-03-16T06:02:59.164Z,48.00
2018-03-16T06:05:26.839Z,44.40
2018-03-16T06:07:54.499Z,49.37
2018-03-16T06:10:22.296Z,42.23
2018-03-16T06:12:49.906Z,44.20
2018-03-16T06:15:17.628Z,43.13
2018-03-16T06:17:45.243Z,41.20
2018-03-16T06:20:12.839Z,45.87
2018-03-16T06:22:40.630Z,41.67
2018-03-16T06:25:08.235Z,52.07
2018-03-16T06:27:35.918Z,49.00
2018-03-16T06:30:03.800Z,42.40
2018-03-16T06:32:31.380Z,40.37
2018-03-16T06:34:59.153Z,38.03
2018-03-16T06:37:26.928Z,46.47
2018-03-16T06:39:54.599Z,36.77
2018-03-16T06:42:22.383Z,47.17
2018-03-16T06:44:50.259Z,45.47
2018-03-16T06:47:17.935Z,42.17
2018-03-16T06:49:45.686Z,49.20
2018-03-16T06:52:13.347Z,33.90
2018-03-16T06:54:41.054Z,46.20
2018-03-16T06:57:08.636Z,38.47
2018-03-16T06:59:36.377Z,40.17
2018-03-16T07:02:04.089Z,45.17
2018-03-16T07:04:31.977Z,41.60
2018-03-16T07:06:59.564Z,43.03
2018-03-16T07:09:27.155Z,23.67
2018-03-16T07:11:54.806Z,43.73
2018-03-16T07:14:22.399Z,39.50
2018-03-16T07:16:50.115Z,32.43
2018-03-16T07:19:17.822Z,35.53
2018-03-16T07:21:45.600Z,38.70
2018-03-16T07:24:13.377Z,35.00
2018-03-16T07:26:41.264Z,31.33
2018-03-16T07:29:09.035Z,37.10
2018-03-16T07:31:36.629Z,36.53
2018-03-16T07:34:04.376Z,45.17
2018-03-16T07:36:31.979Z,37.53
2018-03-16T07:38:59.648Z,41.67
2018-03-16T07:41:27.523Z,41.53
2018-03-16T07:43:55.115Z,43.60
2018-03-16T07:46:22.873Z,34.13
2018-03-16T07:48:50.602Z,32.57
2018-03-16T07:51:18.204Z,40.20
2018-03-16T07:53:45.958Z,37.83
2018-03-16T07:56:13.658Z,36.63
2018-03-16T07:58:41.393Z,42.07
2018-03-16T08:01:09.229Z,39.87
2018-03-16T08:03:37.007Z,40.90
2018-03-16T08:06:04.626Z,47.43
2018-03-16T08:08:32.446Z,44.97
2018-03-16T08:11:00.242Z,45.37
2018-03-16T08:13:28.015Z,52.00
2018-03-16T08:15:55.657Z,47.67
2018-03-16T08:18:23.366Z,45.60
2018-03-16T08:20:51.090Z,41.53
2018-03-16T08:23:18.926Z,37.90
2018-03-16T08:25:46.524Z,48.53
2018-03-16T08:28:15.227Z,40.47
2018-03-16T08:30:42.957Z,34.93
2018-03-16T08:33:10.640Z,40.47
2018-03-16T08:35:38.252Z,34.27
2018-03-16T08:38:05.999Z,35.57
2018-03-16T08:40:33.657Z,41.13
2018-03-16T08:43:01.415Z,37.37
2018-03-16T08:45:29.235Z,42.97
2018-03-16T08:47:56.887Z,33.53
2018-03-16T08:50:24.687Z,37.90
2018-03-16T08:52:52.271Z,35.53
2018-03-16T08:55:19.890Z,42.63
2018-03-16T08:57:47.707Z,36.53
2018-03-16T09:00:15.490Z,23.80
2018-03-16T09:02:43.152Z,39.80
2018-03-16T09:05:10.737Z,28.60
2018-03-16T09:07:38.349Z,31.70
2018-03-16T09:10:06.085Z,36.57
2018-03-16T09:12:33.795Z,41.10
2018-03-16T09:15:01.438Z,29.70
2018-03-16T09:17:29.111Z,41.40
2018-03-16T09:19:56.710Z,36.70
2018-03-16T09:22:24.359Z,27.20
2018-03-16T09:24:52.027Z,44.20
2018-03-16T09:27:19.701Z,38.53
2018-03-16T09:29:47.504Z,32.17
2018-03-16T09:32:15.373Z,38.10
2018-03-16T09:34:43.147Z,24.73
2018-03-16T09:37:10.927Z,34.33
2018-03-16T09:39:38.603Z,29.30
2018-03-16T09:42:06.213Z,36.67
2018-03-16T09:44:33.944Z,31.27
2018-03-16T09:47:01.622Z,29.40
2018-03-16T09:49:29.410Z,33.23
2018-03-16T09:51:57.188Z,29.60
2018-03-16T09:54:24.836Z,34.40
2018-03-16T09:56:52.642Z,34.53
2018-03-16T09:59:20.315Z,24.03
2018-03-16T10:01:47.979Z,27.30
2018-03-16T10:04:15.767Z,30.33
2018-03-16T10:06:43.389Z,34.87
2018-03-16T10:09:11.219Z,28.43
2018-03-16T10:11:39.001Z,24.97
2018-03-16T10:14:06.643Z,32.60
2018-03-16T10:16:34.454Z,23.00
2018-03-16T10:19:02.041Z,28.87
2018-03-16T10:21:29.806Z,32.70
2018-03-16T10:23:57.481Z,35.17
2018-03-16T10:26:25.258Z,23.73
2018-03-16T10:28:52.832Z,23.20
2018-03-16T10:31:20.472Z,34.07
2018-03-16T10:33:48.285Z,28.60
2018-03-16T10:36:15.861Z,22.93
2018-03-16T10:38:43.527Z,26.80
2018-03-16T10:41:11.414Z,33.73
2018-03-16T10:43:39.092Z,31.90
2018-03-16T10:46:06.832Z,30.73
2018-03-16T10:48:34.464Z,28.33
2018-03-16T10:51:02.161Z,28.00
2018-03-16T10:53:29.755Z,28.90
2018-03-16T10:55:57.466Z,26.43
2018-03-16T10:58:25.251Z,33.77
2018-03-16T11:00:58.563Z,32.03
2018-03-16T11:06:27.700Z,34.27
2018-03-16T11:08:55.362Z,32.30
2018-03-16T11:11:22.955Z,24.47
2018-03-16T11:13:50.590Z,31.00
2018-03-16T11:16:18.400Z,29.80
2018-03-16T11:18:46.072Z,29.60
2018-03-16T11:21:13.911Z,28.57
2018-03-16T11:23:41.707Z,29.57
2018-03-16T11:26:09.294Z,29.07
2018-03-16T11:28:36.968Z,24.13
2018-03-16T11:31:04.549Z,19.50
2018-03-16T11:33:32.152Z,25.80
2018-03-16T11:35:59.861Z,28.40
2018-03-16T11:38:27.566Z,26.80
2018-03-16T11:40:55.357Z,29.03
2018-03-16T11:43:22.975Z,17.47
2018-03-16T11:45:50.814Z,33.00
2018-03-16T11:48:18.540Z,30.93
2018-03-16T11:50:46.259Z,20.60
2018-03-16T11:53:13.885Z,27.07
2018-03-16T11:55:41.524Z,24.63
2018-03-16T11:58:09.114Z,22.53
2018-03-16T12:00:36.696Z,23.50
2018-03-16T12:03:04.431Z,26.73
2018-03-16T12:05:32.326Z,29.03
2018-03-16T12:07:59.981Z,30.27
2018-03-16T12:10:27.575Z,19.30
2018-03-16T12:12:55.217Z,26.90
2018-03-16T12:15:22.972Z,27.63
2018-03-16T12:17:50.639Z,20.50
2018-03-16T12:20:18.365Z,24.40
2018-03-16T12:22:45.980Z,25.23
2018-03-16T12:25:13.661Z,25.97
2018-03-16T12:27:41.260Z,25.80
2018-03-16T12:30:08.971Z,23.23
2018-03-16T12:32:36.649Z,22.63
2018-03-16T12:35:04.528Z,21.97
2018-03-16T12:37:32.305Z,26.27
2018-03-16T12:40:00.074Z,19.37
2018-03-16T12:42:27.699Z,17.73
2018-03-16T12:44:55.287Z,19.93
2018-03-16T12:47:23.111Z,24.53
2018-03-16T12:49:50.782Z,22.80
2018-03-16T12:52:18.664Z,18.87
2018-03-16T12:54:46.253Z,21.87
2018-03-16T12:57:13.974Z,19.77
2018-03-16T12:59:41.769Z,18.77
2018-03-16T13:02:09.374Z,18.37
2018-03-16T13:04:36.958Z,18.30
2018-03-16T13:07:04.591Z,14.50
2018-03-16T13:09:32.392Z,20.13
2018-03-16T13:12:00.070Z,22.40
2018-03-16T13:14:27.728Z,12.13
2018-03-16T13:16:55.404Z,15.00
2018-03-16T13:19:23.019Z,18.57
2018-03-16T13:21:50.600Z,19.00
2018-03-16T13:24:18.206Z,22.43
2018-03-16T13:26:46.002Z,17.80
2018-03-16T13:29:13.680Z,18.10
2018-03-16T13:31:41.527Z,21.20
2018-03-16T13:34:09.351Z,15.10
2018-03-16T13:36:37.088Z,18.77
2018-03-16T13:39:05.008Z,23.10
2018-03-16T13:41:32.992Z,14.50
2018-03-16T13:44:00.645Z,16.20
2018-03-16T13:46:28.336Z,19.50
2018-03-16T13:48:56.026Z,17.17
2018-03-16T13:51:23.689Z,11.83
2018-03-16T13:53:51.436Z,20.47
2018-03-16T13:56:19.247Z,20.57
2018-03-16T13:58:47.025Z,18.63
2018-03-16T14:01:14.680Z,13.47
2018-03-16T14:03:42.376Z,21.83
2018-03-16T14:06:10.040Z,18.73
2018-03-16T14:08:37.828Z,15.57
2018-03-16T14:11:05.413Z,15.30
2018-03-16T14:13:33.173Z,12.73
2018-03-16T14:16:00.834Z,19.80
2018-03-16T14:18:28.634Z,17.03
2018-03-16T14:20:56.612Z,17.50
2018-03-16T14:23:24.372Z,11.57
2018-03-16T14:25:52.009Z,15.17
2018-03-16T14:28:19.639Z,17.40
2018-03-16T14:30:47.325Z,14.57
2018-03-16T14:33:14.993Z,15.17
2018-03-16T14:35:42.768Z,17.70
2018-03-16T14:38:10.492Z,13.23
2018-03-16T14:40:38.190Z,18.50
2018-03-16T14:43:06.004Z,15.00
2018-03-16T14:45:33.772Z,13.50
2018-03-16T14:48:01.370Z,18.97
2018-03-16T14:50:28.959Z,15.10
2018-03-16T14:52:56.807Z,16.13
2018-03-16T14:55:24.466Z,12.77
2018-03-16T14:57:52.159Z,17.30
2018-03-16T15:00:19.895Z,20.73
2018-03-16T15:02:47.712Z,12.40
2018-03-16T15:05:15.289Z,13.93
2018-03-16T15:07:42.940Z,16.80
2018-03-16T15:10:11.046Z,12.87
2018-03-16T15:12:38.615Z,12.27
2018-03-16T15:15:06.396Z,15.67
2018-03-16T15:17:34.021Z,14.77
2018-03-16T15:20:01.848Z,17.20
2018-03-16T15:22:29.618Z,10.50
2018-03-16T15:24:57.510Z,13.40
2018-03-16T15:27:25.184Z,13.17
2018-03-16T15:29:53.014Z,13.20
2018-03-16T15:32:20.850Z,13.67
2018-03-16T15:34:48.434Z,9.90
2018-03-16T15:37:16.298Z,12.50
2018-03-16T15:39:43.970Z,11.87
2018-03-16T15:42:11.751Z,8.87
2018-03-16T15:44:40.160Z,12.50
2018-03-16T15:47:07.807Z,12.63
2018-03-16T15:49:35.703Z,11.10
2018-03-16T15:52:03.276Z,12.73
2018-03-16T15:54:30.894Z,12.47
2018-03-16T15:56:58.724Z,8.57
2018-03-16T15:59:26.389Z,9.27
2018-03-16T16:01:53.973Z,11.23
2018-03-16T16:04:21.854Z,8.10
2018-03-16T16:06:49.636Z,13.03
2018-03-16T16:09:17.398Z,10.10
2018-03-16T16:11:45.006Z,13.00
2018-03-16T16:14:12.656Z,10.40
2018-03-16T16:16:40.307Z,9.20
2018-03-16T16:19:08.112Z,11.40
2018-03-16T16:21:35.690Z,6.27
2018-03-16T16:24:03.347Z,11.87
2018-03-16T16:26:31.024Z,10.83
2018-03-16T16:28:58.749Z,16.47
2018-03-16T16:31:26.387Z,11.40
2018-03-16T16:33:54.059Z,11.00
2018-03-16T16:36:21.634Z,12.30
2018-03-16T16:38:49.309Z,10.30
2018-03-16T16:41:17.092Z,10.90
2018-03-16T16:43:44.869Z,11.57
2018-03-16T16:46:12.497Z,10.73
2018-03-16T16:48:40.105Z,8.70
2018-03-16T16:51:07.694Z,11.97
2018-03-16T16:53:35.364Z,10.20
2018-03-16T16:56:03.038Z,10.40
2018-03-16T16:58:30.701Z,11.10
2018-03-16T17:00:58.490Z,8.20
2018-03-16T17:03:26.167Z,9.03
2018-03-16T17:05:53.936Z,10.70
2018-03-16T17:08:21.724Z,10.23
2018-03-16T17:10:49.399Z,8.90
2018-03-16T17:13:16.978Z,10.80
2018-03-16T17:15:44.752Z,9.30
2018-03-16T17:18:12.433Z,12.63
2018-03-16T17:20:40.091Z,12.50
2018-03-16T17:23:07.882Z,12.20
2018-03-16T17:25:35.551Z,15.40
2018-03-16T17:28:03.141Z,12.73
2018-03-16T17:30:30.787Z,10.63
2018-03-16T17:32:58.683Z,10.57
2018-03-16T17:35:26.460Z,8.83
2018-03-16T17:37:54.067Z,12.77
2018-03-16T17:40:21.916Z,12.73
2018-03-16T17:42:49.567Z,7.40
2018-03-16T17:45:17.200Z,14.00
2018-03-16T17:47:44.838Z,13.33
2018-03-16T17:50:12.617Z,10.57
2018-03-16T17:52:40.178Z,9.03
2018-03-16T17:55:07.826Z,12.80
2018-03-16T17:57:35.437Z,7.97
2018-03-16T18:00:03.283Z,8.70
2018-03-16T18:02:31.098Z,11.93
2018-03-16T18:04:58.874Z,8.43
2018-03-16T18:07:26.547Z,10.03
2018-03-16T18:09:55.200Z,7.80
2018-03-16T18:12:22.820Z,9.90
2018-03-16T18:14:50.396Z,9.27
2018-03-16T18:17:18.122Z,11.00
2018-03-16T18:19:45.748Z,10.53
2018-03-16T18:22:13.522Z,8.00
2018-03-16T18:24:41.301Z,9.73
2018-03-16T18:27:08.980Z,8.40
2018-03-16T18:29:36.861Z,9.10
2018-03-16T18:32:04.617Z,9.07
2018-03-16T18:34:32.361Z,6.67
2018-03-16T18:36:59.933Z,9.60
2018-03-16T18:39:31.217Z,6.57
2018-03-16T18:42:03.781Z,6.50
2018-03-16T18:44:36.169Z,9.50
2018-03-16T18:47:08.088Z,8.30
2018-03-16T18:49:40.124Z,8.90
2018-03-16T18:52:11.612Z,8.30
2018-03-16T18:54:44.684Z,7.80
2018-03-16T18:57:12.624Z,5.93
2018-03-16T18:59:40.197Z,9.80
2018-03-16T19:02:07.776Z,7.10
2018-03-16T19:04:40.947Z,7.53
2018-03-16T19:07:13.109Z,7.63
2018-03-16T19:09:42.254Z,7.37
2018-03-16T19:12:12.372Z,5.77
2018-03-16T19:14:42.129Z,7.17
2018-03-16T19:17:10.007Z,6.33
2018-03-16T19:19:37.786Z,5.80
2018-03-16T19:22:05.462Z,6.23
2018-03-16T19:24:33.070Z,6.37
2018-03-16T19:27:00.916Z,6.30
2018-03-16T19:29:28.696Z,6.43
2018-03-16T19:31:56.478Z,7.20
2018-03-16T19:34:24.227Z,8.10
2018-03-16T19:36:52.090Z,8.07
2018-03-16T19:39:19.791Z,8.60
2018-03-16T19:41:47.354Z,7.43
2018-03-16T19:44:15.153Z,6.17
2018-03-16T19:46:42.878Z,4.60
2018-03-16T19:49:10.435Z,8.13
2018-03-16T19:51:38.066Z,7.37
2018-03-16T19:54:05.715Z,6.93
2018-03-16T19:56:33.414Z,7.03
2018-03-16T19:59:01.038Z,9.37
2018-03-16T20:01:28.875Z,5.47
2018-03-16T20:03:56.499Z,7.20
2018-03-16T20:06:24.369Z,6.10
2018-03-16T20:08:52.011Z,4.00
2018-03-16T20:11:19.682Z,5.07
2018-03-16T20:13:47.258Z,5.03
2018-03-16T20:16:14.924Z,5.90
2018-03-16T20:18:42.609Z,4.97
2018-03-16T20:21:10.392Z,5.17
2018-03-16T20:23:38.169Z,5.10
2018-03-16T20:26:05.789Z,7.53
2018-03-16T20:28:33.510Z,4.80
2018-03-16T20:31:01.189Z,6.23
2018-03-16T20:33:28.814Z,7.40
2018-03-16T20:35:56.388Z,7.27
2018-03-16T20:38:23.997Z,5.43
2018-03-16T20:40:51.599Z,9.20
2018-03-16T20:43:19.264Z,8.10
2018-03-16T20:45:46.930Z,5.23
2018-03-16T20:48:14.517Z,5.07
2018-03-16T20:50:42.181Z,7.60
2018-03-16T20:53:09.782Z,5.80
2018-03-16T20:55:38.530Z,4.70
2018-03-16T20:58:06.134Z,6.40
2018-03-16T21:00:33.814Z,5.53
2018-03-16T21:03:01.579Z,4.67
2018-03-16T21:05:29.269Z,4.80
2018-03-16T21:07:56.926Z,4.27
2018-03-16T21:10:24.720Z,6.40
2018-03-16T21:12:52.332Z,5.90
2018-03-16T21:15:19.931Z,5.40
2018-03-16T21:17:47.538Z,6.20
2018-03-16T21:20:19.010Z,6.67
2018-03-16T21:22:46.696Z,5.10
2018-03-16T21:25:14.327Z,4.80
2018-03-16T21:27:42.021Z,5.40
2018-03-16T21:30:11.142Z,4.20
2018-03-16T21:32:38.818Z,6.00
2018-03-16T21:35:06.411Z,4.50
2018-03-16T21:37:34.248Z,3.80
2018-03-16T21:40:01.892Z,5.23
2018-03-16T21:42:30.032Z,5.40
2018-03-16T21:45:02.498Z,5.70
2018-03-16T21:47:30.448Z,4.27
2018-03-16T21:49:58.285Z,5.40
2018-03-16T21:52:25.959Z,4.53
2018-03-16T21:54:53.588Z,4.80
2018-03-16T21:57:21.156Z,4.60
2018-03-16T21:59:48.751Z,5.23
2018-03-16T22:02:16.542Z,4.37
2018-03-16T22:04:44.148Z,5.00
2018-03-16T22:07:11.762Z,4.57
2018-03-16T22:09:39.375Z,4.40
2018-03-16T22:12:07.011Z,4.07
2018-03-16T22:14:34.938Z,4.57
2018-03-16T22:17:02.695Z,5.33
2018-03-16T22:19:30.682Z,4.67
2018-03-16T22:21:58.263Z,4.40
2018-03-16T22:24:26.044Z,5.00
2018-03-16T22:26:53.711Z,3.30
2018-03-16T22:29:21.398Z,4.03
2018-03-16T22:31:48.973Z,4.13
2018-03-16T22:34:16.639Z,5.40
2018-03-16T22:36:44.209Z,4.10
2018-03-16T22:39:11.900Z,4.43
2018-03-16T22:41:39.530Z,6.20
2018-03-16T22:44:07.249Z,3.57
2018-03-16T22:46:34.823Z,4.20
2018-03-16T22:49:03.009Z,3.83
2018-03-16T22:51:30.786Z,4.20
2018-03-16T22:53:58.371Z,5.30
2018-03-16T22:56:26.240Z,4.87
2018-03-16T22:58:53.903Z,4.97
2018-03-16T23:01:21.569Z,4.50
2018-03-16T23:03:49.172Z,4.40
2018-03-16T23:06:16.838Z,4.23
2018-03-16T23:08:44.500Z,5.07
2018-03-16T23:11:12.173Z,3.43
2018-03-16T23:13:39.854Z,4.20
2018-03-16T23:16:07.463Z,4.23
2018-03-16T23:18:35.065Z,4.40
2018-03-16T23:21:02.894Z,3.57
2018-03-16T23:23:30.609Z,5.00
2018-03-16T23:25:58.206Z,4.00
2018-03-16T23:28:25.813Z,4.10
2018-03-16T23:30:53.478Z,3.93
2018-03-16T23:33:21.073Z,3.90
2018-03-16T23:35:48.818Z,3.80
2018-03-16T23:38:16.437Z,3.93
2018-03-16T23:40:44.013Z,4.30
2018-03-16T23:43:11.641Z,3.87
2018-03-16T23:45:39.201Z,4.70
2018-03-16T23:48:06.777Z,4.87
2018-03-16T23:50:34.469Z,4.63
2018-03-16T23:53:02.072Z,4.77
2018-03-16T23:55:29.719Z,4.27
2018-03-16T23:57:57.415Z,4.90
